createdAt,value
2023-03-01T00:50:51.145Z,-1.40
2023-03-01T00:53:19.424Z,-1.51
2023-03-01T00:55:49.011Z,-1.59
2023-03-01T00:58:17.760Z,-1.56
2023-03-01T01:00:49.864Z,-1.50
2023-03-01T01:03:18.312Z,-1.45
2023-03-01T01:05:48.333Z,-1.40
2023-03-01T01:08:19.503Z,-1.37
2023-03-01T01:10:49.422Z,-1.31
2023-03-01T01:13:17.892Z,-1.25
2023-03-01T01:15:46.777Z,-1.23
2023-03-01T01:18:15.171Z,-1.26
2023-03-01T01:20:44.634Z,-1.27
2023-03-01T01:23:16.743Z,-1.30
2023-03-01T01:25:46.624Z,-1.31
2023-03-01T01:28:14.902Z,-1.34
2023-03-01T01:30:43.585Z,-1.36
2023-03-01T01:33:11.871Z,-1.39
2023-03-01T01:35:40.238Z,-1.43
2023-03-01T01:38:08.425Z,-1.45
2023-03-01T01:40:44.782Z,-1.48
2023-03-01T01:43:28.671Z,-1.50
2023-03-01T01:46:00.981Z,-1.49
2023-03-01T01:48:44.251Z,-1.46
2023-03-01T01:51:22.791Z,-1.47
2023-03-01T01:53:54.469Z,-1.46
2023-03-01T01:56:23.201Z,-1.43
2023-03-01T01:58:51.745Z,-1.47
2023-03-01T02:01:20.841Z,-1.53
2023-03-01T02:03:49.235Z,-1.58
2023-03-01T02:06:21.249Z,-1.58
2023-03-01T02:08:50.510Z,-1.58
2023-03-01T02:11:19.906Z,-1.58
2023-03-01T02:13:51.540Z,-1.54
2023-03-01T02:16:20.175Z,-1.53
2023-03-01T02:18:49.106Z,-1.52
2023-03-01T02:21:38.941Z,-1.47
2023-03-01T02:24:22.753Z,-1.43
2023-03-01T02:26:56.288Z,-1.44
2023-03-01T02:29:24.720Z,-1.45
2023-03-01T02:31:54.566Z,-1.46
